Time;durP1;ratioP1;P1;durP2;ratioP2;P2;SDS_P1;SDS_P2;PMS_P1;PMS_P2;Temp;Humidity;BMP_temperature;BMP_pressure;BME280_temperature;BME280_humidity;BME280_pressure;Samples;Min_cycle;Max_cycle;Signal;HPM_P1;HPM_P2
2022/11/30 00:00:03;;;;;;;45.40;24.17;;;5.00;99.90;;;;;;5008679;28;20083;-51
2022/11/30 00:02:29;;;;;;;36.72;21.35;;;5.00;99.90;;;;;;5005019;28;20037;-49
2022/11/30 00:04:55;;;;;;;41.65;23.67;;;4.90;99.90;;;;;;5009002;28;20388;-52
2022/11/30 00:07:20;;;;;;;36.28;22.13;;;4.80;99.90;;;;;;5012797;28;20132;-51
2022/11/30 00:09:46;;;;;;;38.88;22.13;;;4.80;99.90;;;;;;5003265;28;20095;-49
2022/11/30 00:12:12;;;;;;;41.33;23.63;;;4.60;99.90;;;;;;5006621;28;20053;-47
2022/11/30 00:14:37;;;;;;;41.13;22.38;;;4.60;99.90;;;;;;5010354;28;20220;-50
2022/11/30 00:17:03;;;;;;;41.67;21.13;;;4.60;99.90;;;;;;5012017;28;20044;-48
2022/11/30 00:19:28;;;;;;;88.20;20.52;;;4.50;99.90;;;;;;5004829;28;20041;-49
2022/11/30 00:21:54;;;;;;;170.18;21.13;;;4.50;99.90;;;;;;5009524;28;20042;-52
2022/11/30 00:24:20;;;;;;;158.68;16.50;;;4.50;99.90;;;;;;5007751;28;20575;-51
2022/11/30 00:26:45;;;;;;;139.00;16.58;;;4.50;99.90;;;;;;5005461;28;20070;-48
2022/11/30 00:29:11;;;;;;;228.52;18.52;;;4.40;99.90;;;;;;5002561;28;20052;-50
2022/11/30 00:31:38;;;;;;;187.07;17.70;;;;;;;;;;5007306;28;20071;-52
2022/11/30 00:34:03;;;;;;;154.68;18.35;;;4.40;99.90;;;;;;5005014;28;20195;-47
2022/11/30 00:36:29;;;;;;;124.22;19.23;;;4.30;99.90;;;;;;5006874;28;20708;-48
2022/11/30 00:38:55;;;;;;;46.38;17.30;;;4.30;99.90;;;;;;5008762;28;20041;-48
2022/11/30 00:41:21;;;;;;;75.90;18.08;;;4.30;99.90;;;;;;5004170;28;20498;-48
2022/11/30 00:43:47;;;;;;;49.72;18.90;;;4.30;99.90;;;;;;5005639;28;20052;-50
2022/11/30 00:46:13;;;;;;;33.80;16.88;;;;;;;;;;5005683;28;20050;-50
2022/11/30 00:48:39;;;;;;;27.67;17.63;;;4.40;99.90;;;;;;5006123;28;20053;-48
2022/11/30 00:51:06;;;;;;;32.40;19.02;;;4.50;99.90;;;;;;5000762;28;20077;-49
2022/11/30 00:53:31;;;;;;;38.45;21.13;;;4.60;99.90;;;;;;5010351;28;20034;-53
2022/11/30 00:55:57;;;;;;;36.28;20.67;;;4.60;99.90;;;;;;5005437;28;20096;-48
2022/11/30 00:58:23;;;;;;;38.47;21.75;;;;;;;;;;5003780;28;20046;-51
2022/11/30 01:00:49;;;;;;;48.55;22.85;;;4.70;99.90;;;;;;5005928;28;20525;-51
2022/11/30 01:03:15;;;;;;;38.67;20.98;;;4.70;99.90;;;;;;5004058;28;20365;-51
2022/11/30 01:05:42;;;;;;;47.65;24.77;;;4.80;99.90;;;;;;5007766;28;20065;-49
2022/11/30 01:08:09;;;;;;;41.15;23.98;;;4.90;99.90;;;;;;5004432;28;20053;-53
2022/11/30 01:10:36;;;;;;;58.20;26.77;;;4.90;99.90;;;;;;5006190;28;20049;-50
2022/11/30 01:13:03;;;;;;;55.35;27.88;;;5.00;99.90;;;;;;5004312;28;20067;-49
2022/11/30 01:15:29;;;;;;;54.15;27.67;;;5.00;99.90;;;;;;5002839;28;20061;-52
2022/11/30 01:17:57;;;;;;;41.55;24.00;;;5.10;99.90;;;;;;5007325;28;20052;-50
2022/11/30 01:20:23;;;;;;;55.75;27.33;;;5.10;99.90;;;;;;5007395;28;20042;-51
2022/11/30 01:22:48;;;;;;;51.13;26.65;;;5.20;99.90;;;;;;5005308;28;20096;-51
2022/11/30 01:25:14;;;;;;;45.60;24.08;;;5.20;99.90;;;;;;5009624;28;20061;-50
2022/11/30 01:27:40;;;;;;;56.28;26.25;;;5.10;99.90;;;;;;5007087;28;20045;-46
2022/11/30 01:30:06;;;;;;;42.10;23.85;;;5.30;99.90;;;;;;5005914;28;20587;-52
2022/11/30 01:32:32;;;;;;;53.17;26.83;;;;;;;;;;5000984;28;20064;-51
2022/11/30 01:34:58;;;;;;;42.53;24.95;;;5.10;99.90;;;;;;5005101;28;20085;-53
2022/11/30 01:37:24;;;;;;;56.00;26.45;;;5.20;99.90;;;;;;5003711;28;20426;-49
2022/11/30 01:39:49;;;;;;;51.53;25.85;;;5.20;99.90;;;;;;5004945;28;20044;-53
2022/11/30 01:42:17;;;;;;;46.80;25.67;;;5.40;99.90;;;;;;5006368;28;20049;-52
2022/11/30 01:44:58;;;;;;;45.15;24.77;;;5.30;99.90;;;;;;5005675;28;20056;-51
2022/11/30 01:47:38;;;;;;;44.40;25.05;;;5.30;99.90;;;;;;5004771;28;20080;-51
2022/11/30 01:50:08;;;;;;;43.80;25.42;;;3.60;99.90;;;;;;5002499;28;20103;-50
2022/11/30 01:52:38;;;;;;;43.70;23.83;;;5.30;99.90;;;;;;5004009;28;21161;-53
2022/11/30 01:55:25;;;;;;;42.45;24.67;;;5.50;99.90;;;;;;5003221;28;20153;-50
2022/11/30 01:58:11;;;;;;;41.45;25.33;;;5.50;99.90;;;;;;5005086;28;20041;-49
2022/11/30 02:00:37;;;;;;;42.75;24.42;;;5.50;99.90;;;;;;5004193;28;20502;-52
2022/11/30 02:03:12;;;;;;;42.22;24.13;;;5.40;99.90;;;;;;5000602;28;20506;-48
2022/11/30 02:05:40;;;;;;;36.72;24.25;;;5.40;99.90;;;;;;5006630;28;20091;-51
2022/11/30 02:08:08;;;;;;;44.75;25.83;;;5.40;99.90;;;;;;5002411;28;20055;-48
2022/11/30 02:10:37;;;;;;;47.70;26.98;;;5.50;99.90;;;;;;5004641;28;20065;-52
2022/11/30 02:13:41;;;;;;;45.30;23.63;;;5.50;99.90;;;;;;5002698;28;20041;-48
2022/11/30 02:16:40;;;;;;;52.47;27.42;;;5.60;99.90;;;;;;5004701;28;20262;-48
2022/11/30 02:19:42;;;;;;;49.90;25.60;;;5.50;99.90;;;;;;5006742;28;20075;-47
2022/11/30 02:22:31;;;;;;;45.95;24.90;;;5.50;99.90;;;;;;5005374;28;20050;-51
2022/11/30 02:25:22;;;;;;;44.55;25.38;;;5.30;99.90;;;;;;5005512;28;20501;-51
2022/11/30 02:28:08;;;;;;;46.55;25.77;;;5.40;99.90;;;;;;5002745;28;20042;-48
2022/11/30 02:30:36;;;;;;;43.35;25.40;;;5.50;99.90;;;;;;5002011;28;20041;-49
2022/11/30 02:33:09;;;;;;;45.50;24.90;;;5.40;99.90;;;;;;5004374;28;20049;-52
2022/11/30 02:35:39;;;;;;;54.05;27.27;;;5.60;99.90;;;;;;4999235;28;20041;-50
2022/11/30 02:38:05;;;;;;;56.28;27.08;;;5.40;99.90;;;;;;5002148;28;20125;-50
2022/11/30 02:40:31;;;;;;;42.15;26.13;;;5.40;99.90;;;;;;5002989;28;20281;-49
2022/11/30 02:43:00;;;;;;;55.33;27.15;;;5.50;99.90;;;;;;5001724;28;20790;-50
2022/11/30 02:45:37;;;;;;;54.58;26.92;;;5.50;99.90;;;;;;5003520;28;20077;-49
2022/11/30 02:48:11;;;;;;;56.10;27.33;;;5.50;99.90;;;;;;5005084;28;20490;-49
2022/11/30 02:50:43;;;;;;;40.75;23.90;;;5.60;99.90;;;;;;5005983;28;20127;-53
2022/11/30 02:53:09;;;;;;;62.33;27.52;;;5.60;99.90;;;;;;5001854;28;20120;-49
2022/11/30 02:55:35;;;;;;;47.15;26.33;;;5.50;99.90;;;;;;5007307;28;20498;-53
2022/11/30 02:58:01;;;;;;;40.10;24.33;;;5.40;99.90;;;;;;5004990;28;20431;-57
2022/11/30 03:00:27;;;;;;;44.05;26.10;;;5.40;99.90;;;;;;5006066;28;20377;-50
2022/11/30 03:02:53;;;;;;;42.15;24.52;;;5.50;99.90;;;;;;5004896;28;20044;-53
2022/11/30 03:05:19;;;;;;;47.70;26.10;;;5.50;99.90;;;;;;5005493;28;20642;-51
2022/11/30 03:07:45;;;;;;;45.17;26.35;;;5.40;99.90;;;;;;5007063;28;20052;-49
2022/11/30 03:10:11;;;;;;;38.03;23.20;;;5.40;99.90;;;;;;5000728;28;20046;-50
2022/11/30 03:12:36;;;;;;;42.55;23.25;;;5.50;99.90;;;;;;5004133;28;20041;-49
2022/11/30 03:15:03;;;;;;;49.30;25.33;;;5.40;99.90;;;;;;4998872;28;21488;-48
2022/11/30 03:17:29;;;;;;;41.58;23.80;;;5.20;99.90;;;;;;4998524;28;20115;-52
2022/11/30 03:19:55;;;;;;;41.85;22.95;;;5.20;99.90;;;;;;5001156;28;20629;-52
2022/11/30 03:22:20;;;;;;;35.40;21.90;;;5.20;99.90;;;;;;5005291;28;20037;-52
2022/11/30 03:24:46;;;;;;;40.65;22.25;;;5.30;99.90;;;;;;5004881;28;20038;-49
2022/11/30 03:27:12;;;;;;;46.75;24.38;;;5.20;99.90;;;;;;5005761;28;20508;-50
2022/11/30 03:29:38;;;;;;;37.90;23.42;;;;;;;;;;5018391;28;20042;-53
2022/11/30 03:32:04;;;;;;;40.03;24.10;;;5.20;99.90;;;;;;5000228;28;20144;-49
2022/11/30 03:34:30;;;;;;;43.83;23.23;;;5.20;99.90;;;;;;5007784;28;20041;-53
2022/11/30 03:36:56;;;;;;;49.67;26.38;;;5.00;99.90;;;;;;5000070;28;20037;-51
2022/11/30 03:39:23;;;;;;;54.88;27.88;;;5.30;99.90;;;;;;5002857;28;20099;-54
2022/11/30 03:41:49;;;;;;;54.03;27.25;;;5.10;99.90;;;;;;5002262;28;20046;-52
2022/11/30 03:44:15;;;;;;;51.58;27.15;;;5.20;99.90;;;;;;5000859;28;21667;-50
2022/11/30 03:46:40;;;;;;;50.10;28.98;;;5.20;99.90;;;;;;5006134;28;20029;-50
2022/11/30 03:49:06;;;;;;;59.95;30.63;;;5.30;99.90;;;;;;5003785;28;20072;-51
2022/11/30 03:51:32;;;;;;;54.65;29.10;;;5.30;99.90;;;;;;5002462;28;20033;-50
2022/11/30 03:53:58;;;;;;;58.45;31.27;;;;;;;;;;5003748;28;20053;-52
2022/11/30 03:56:24;;;;;;;66.93;33.05;;;5.20;99.90;;;;;;5004957;28;20041;-52
2022/11/30 03:58:50;;;;;;;61.65;30.83;;;5.50;99.90;;;;;;5005211;28;20152;-53
2022/11/30 04:01:21;;;;;;;65.93;33.05;;;5.60;99.90;;;;;;4998433;28;20034;-50
2022/11/30 04:03:47;;;;;;;64.97;32.70;;;5.50;99.90;;;;;;5000737;28;20057;-49
2022/11/30 04:06:13;;;;;;;65.93;34.08;;;5.70;99.90;;;;;;5003445;28;20046;-52
2022/11/30 04:08:39;;;;;;;67.07;34.90;;;7.40;99.90;;;;;;5005881;28;20192;-49
2022/11/30 04:11:06;;;;;;;60.22;30.75;;;5.50;99.90;;;;;;5003971;28;20627;-51
2022/11/30 04:13:33;;;;;;;68.10;34.42;;;5.70;99.90;;;;;;5003773;28;20088;-52
2022/11/30 04:15:59;;;;;;;65.03;34.15;;;5.60;99.90;;;;;;5003314;28;20833;-49
2022/11/30 04:18:27;;;;;;;62.05;33.20;;;5.50;99.90;;;;;;5006958;28;20040;-53
2022/11/30 04:20:54;;;;;;;57.53;31.92;;;5.70;99.90;;;;;;4999669;28;20507;-50
2022/11/30 04:23:21;;;;;;;51.05;28.77;;;5.60;99.90;;;;;;4995584;28;20052;-51
2022/11/30 04:25:47;;;;;;;60.13;30.70;;;5.50;99.90;;;;;;5001433;28;20480;-49
2022/11/30 04:28:14;;;;;;;61.22;32.97;;;5.60;99.90;;;;;;5002070;28;20061;-48
2022/11/30 04:30:40;;;;;;;58.85;30.73;;;5.50;99.90;;;;;;5002580;28;20038;-53
2022/11/30 04:33:06;;;;;;;63.45;33.53;;;5.60;99.90;;;;;;5006152;28;20453;-50
2022/11/30 04:35:32;;;;;;;68.13;32.38;;;5.60;99.90;;;;;;5002420;28;20045;-49
2022/11/30 04:37:59;;;;;;;64.40;34.38;;;5.70;99.90;;;;;;5004227;28;20477;-50
2022/11/30 04:40:24;;;;;;;53.60;30.58;;;5.60;99.90;;;;;;5008051;28;20045;-53
2022/11/30 04:42:50;;;;;;;55.75;29.65;;;5.70;99.90;;;;;;5006536;28;20042;-52
2022/11/30 04:45:16;;;;;;;61.45;32.33;;;5.60;99.90;;;;;;5007913;28;20041;-49
2022/11/30 04:47:42;;;;;;;68.22;33.35;;;5.50;99.90;;;;;;5005301;28;20036;-53
2022/11/30 04:50:08;;;;;;;66.22;34.40;;;5.40;99.90;;;;;;5009496;28;20057;-53
2022/11/30 04:52:34;;;;;;;61.90;33.22;;;5.50;99.90;;;;;;5003488;28;20041;-53
2022/11/30 04:55:00;;;;;;;54.40;29.35;;;5.50;99.90;;;;;;5004702;28;20096;-52
2022/11/30 04:57:26;;;;;;;64.88;31.88;;;5.50;99.90;;;;;;5004642;28;20749;-49
2022/11/30 04:59:52;;;;;;;50.75;29.67;;;5.50;99.90;;;;;;5008258;28;20037;-51
2022/11/30 05:02:17;;;;;;;61.13;31.00;;;5.60;99.90;;;;;;5006589;28;20050;-54
2022/11/30 05:04:43;;;;;;;54.63;29.27;;;5.90;99.90;;;;;;5008447;28;20041;-50
2022/11/30 05:07:09;;;;;;;45.40;27.08;;;5.70;99.90;;;;;;5004666;28;20037;-50
2022/11/30 05:09:35;;;;;;;58.80;31.40;;;5.60;99.90;;;;;;5006673;28;20442;-49
2022/11/30 05:12:01;;;;;;;60.35;32.50;;;5.60;99.90;;;;;;5006278;28;20045;-50
2022/11/30 05:14:26;;;;;;;61.25;31.30;;;5.80;99.90;;;;;;5003987;28;20042;-50
2022/11/30 05:16:52;;;;;;;58.25;31.35;;;5.70;99.90;;;;;;5003661;28;20387;-52
2022/11/30 05:19:18;;;;;;;54.10;31.65;;;5.60;99.90;;;;;;5002771;28;20049;-51
2022/11/30 05:21:44;;;;;;;57.78;29.48;;;5.80;99.90;;;;;;5001544;28;20048;-49
2022/11/30 05:24:09;;;;;;;53.58;28.75;;;6.10;99.90;;;;;;5006001;28;20132;-48
2022/11/30 05:26:36;;;;;;;62.15;31.90;;;5.70;99.90;;;;;;5009773;28;20107;-47
2022/11/30 05:29:03;;;;;;;60.50;32.85;;;5.60;99.90;;;;;;5005403;28;20056;-51
2022/11/30 05:31:29;;;;;;;60.85;31.05;;;5.50;99.90;;;;;;5003637;28;20112;-49
2022/11/30 05:33:55;;;;;;;68.25;33.80;;;5.90;99.90;;;;;;5005991;28;20041;-52
2022/11/30 05:36:21;;;;;;;62.05;32.00;;;5.70;99.90;;;;;;5003806;28;20042;-49
2022/11/30 05:38:47;;;;;;;68.05;32.78;;;5.80;99.90;;;;;;5007089;28;20033;-50
2022/11/30 05:41:13;;;;;;;66.03;32.25;;;5.90;99.90;;;;;;5007962;28;20050;-47
2022/11/30 05:43:38;;;;;;;59.83;31.70;;;5.90;99.90;;;;;;5008611;28;20428;-50
2022/11/30 05:46:06;;;;;;;57.10;30.27;;;6.00;99.90;;;;;;5003965;28;20046;-50
2022/11/30 05:48:32;;;;;;;70.13;32.83;;;6.00;99.90;;;;;;5000315;28;20462;-51
2022/11/30 05:51:14;;;;;;;75.15;33.65;;;5.80;99.90;;;;;;5005923;28;20144;-54
2022/11/30 05:53:40;;;;;;;75.70;32.78;;;6.00;99.90;;;;;;5003062;28;20857;-53
2022/11/30 05:56:15;;;;;;;72.50;33.75;;;6.00;99.90;;;;;;5001741;28;20108;-55
2022/11/30 05:58:41;;;;;;;65.65;29.48;;;6.00;99.90;;;;;;4999951;28;20114;-55
2022/11/30 06:01:07;;;;;;;68.43;32.80;;;6.10;99.90;;;;;;5002107;28;20054;-54
2022/11/30 06:03:35;;;;;;;72.07;32.00;;;6.20;99.90;;;;;;5003399;28;20045;-52
2022/11/30 06:06:01;;;;;;;64.55;31.63;;;6.20;99.90;;;;;;5003685;28;20521;-52
2022/11/30 06:08:27;;;;;;;67.30;31.40;;;6.10;99.90;;;;;;5007223;28;20516;-54
2022/11/30 06:10:53;;;;;;;77.40;33.88;;;6.10;99.90;;;;;;5000728;28;20415;-53
2022/11/30 06:13:18;;;;;;;78.00;34.80;;;6.00;99.90;;;;;;4998702;28;20057;-52
2022/11/30 06:15:44;;;;;;;79.95;34.50;;;6.10;99.90;;;;;;4999480;28;20052;-54
2022/11/30 06:18:12;;;;;;;79.97;33.83;;;6.10;99.90;;;;;;5002027;28;20048;-52
2022/11/30 06:20:38;;;;;;;86.03;43.20;;;;;;;;;;5001598;28;20745;-54
2022/11/30 06:23:04;;;;;;;74.60;38.50;;;6.00;99.90;;;;;;5006914;28;20038;-49
2022/11/30 06:25:30;;;;;;;71.82;34.25;;;6.10;99.90;;;;;;5004945;28;20033;-53
2022/11/30 06:27:55;;;;;;;63.53;28.80;;;6.00;99.90;;;;;;5007472;28;20691;-51
2022/11/30 06:30:21;;;;;;;65.35;32.05;;;5.90;99.90;;;;;;5006765;28;20037;-52
2022/11/30 06:32:49;;;;;;;79.85;37.25;;;5.90;99.90;;;;;;5003225;28;20064;-48
2022/11/30 06:35:16;;;;;;;80.20;37.08;;;6.00;99.90;;;;;;5003526;28;20427;-49
2022/11/30 06:37:42;;;;;;;93.25;39.78;;;6.00;99.90;;;;;;5003762;28;20030;-51
2022/11/30 06:40:09;;;;;;;85.00;34.30;;;6.10;99.90;;;;;;5000853;28;20100;-55
2022/11/30 06:42:36;;;;;;;82.10;37.88;;;7.30;99.90;;;;;;5003928;28;20116;-50
2022/11/30 06:45:02;;;;;;;75.82;32.75;;;7.00;99.90;;;;;;5006080;28;20418;-54
2022/11/30 06:47:28;;;;;;;73.45;36.17;;;6.10;99.90;;;;;;5004926;28;20725;-48
2022/11/30 06:49:54;;;;;;;84.07;39.38;;;5.90;99.90;;;;;;4989027;28;20038;-52
2022/11/30 06:52:19;;;;;;;69.32;33.03;;;5.90;99.90;;;;;;5002982;28;20062;-51
2022/11/30 06:54:45;;;;;;;64.60;30.23;;;6.00;99.90;;;;;;5008172;28;20099;-52
2022/11/30 06:57:11;;;;;;;77.63;34.25;;;6.10;99.90;;;;;;5004414;28;20068;-52
2022/11/30 06:59:41;;;;;;;65.72;30.45;;;6.80;99.90;;;;;;5006549;28;20083;-51
2022/11/30 07:02:13;;;;;;;102.60;55.90;;;8.00;99.90;;;;;;5004657;28;20049;-48
2022/11/30 07:04:39;;;;;;;80.18;37.42;;;6.10;99.90;;;;;;5005129;28;20160;-53
2022/11/30 07:07:06;;;;;;;77.65;32.67;;;6.10;99.90;;;;;;5000431;28;20197;-52
2022/11/30 07:09:35;;;;;;;78.95;35.38;;;6.10;99.90;;;;;;5002652;28;20041;-53
2022/11/30 07:12:02;;;;;;;78.80;33.17;;;6.10;99.90;;;;;;5006182;28;20041;-53
2022/11/30 07:14:29;;;;;;;65.72;29.63;;;6.10;99.90;;;;;;5001557;28;20384;-47
2022/11/30 07:16:55;;;;;;;61.35;29.02;;;6.10;99.90;;;;;;5002792;28;20441;-50
2022/11/30 07:19:21;;;;;;;62.17;28.75;;;6.10;99.90;;;;;;5000016;28;20049;-48
2022/11/30 07:21:47;;;;;;;68.43;29.45;;;7.20;99.90;;;;;;5002267;28;20083;-49
2022/11/30 07:27:00;;;;;;;71.53;31.17;;;6.10;99.90;;;;;;5002654;28;20042;-49
2022/11/30 07:29:26;;;;;;;65.05;28.38;;;6.00;99.90;;;;;;5004934;28;20045;-47
2022/11/30 07:31:52;;;;;;;66.85;30.45;;;6.20;99.90;;;;;;5006235;28;20722;-51
2022/11/30 07:34:19;;;;;;;65.38;30.38;;;6.10;99.90;;;;;;5003919;28;20049;-48
2022/11/30 07:36:44;;;;;;;63.92;32.10;;;6.10;99.90;;;;;;5002592;28;20053;-50
2022/11/30 07:39:11;;;;;;;63.20;30.95;;;6.00;99.90;;;;;;4997412;28;20103;-51
2022/11/30 07:41:37;;;;;;;61.10;30.75;;;6.00;99.90;;;;;;5002345;28;20038;-47
2022/11/30 07:44:07;;;;;;;66.80;31.73;;;6.00;99.90;;;;;;5003672;28;20069;-49
2022/11/30 07:46:34;;;;;;;48.58;24.88;;;6.00;99.90;;;;;;5000649;28;20115;-49
2022/11/30 07:49:08;;;;;;;48.40;25.45;;;6.00;99.90;;;;;;5002844;28;20445;-49
2022/11/30 07:51:37;;;;;;;49.75;26.33;;;6.00;99.90;;;;;;5002321;28;20234;-47
2022/11/30 07:54:03;;;;;;;51.83;25.52;;;6.10;99.90;;;;;;5000466;28;20042;-51
2022/11/30 07:56:29;;;;;;;48.65;24.98;;;6.00;99.90;;;;;;5001803;28;20042;-52
2022/11/30 07:58:57;;;;;;;52.72;25.85;;;6.40;99.90;;;;;;5017687;28;20707;-53
2022/11/30 08:01:25;;;;;;;42.47;22.48;;;5.80;99.90;;;;;;5005407;28;20071;-51
2022/11/30 08:03:51;;;;;;;48.22;24.08;;;5.80;99.90;;;;;;5003550;28;20120;-49
2022/11/30 08:06:19;;;;;;;43.05;23.90;;;6.00;99.90;;;;;;5005448;28;20500;-52
2022/11/30 08:08:46;;;;;;;46.72;23.17;;;6.00;99.90;;;;;;5005011;28;20050;-48
2022/11/30 08:11:14;;;;;;;42.38;22.65;;;5.90;99.90;;;;;;5007698;28;20159;-51
2022/11/30 08:13:41;;;;;;;46.33;24.75;;;5.80;99.90;;;;;;5012916;28;20068;-49
2022/11/30 08:16:17;;;;;;;42.17;22.58;;;5.90;99.90;;;;;;5009208;28;20041;-52
2022/11/30 08:18:44;;;;;;;42.53;22.40;;;6.00;99.90;;;;;;5004869;28;20077;-47
2022/11/30 08:21:12;;;;;;;43.08;23.23;;;5.80;99.90;;;;;;5001571;28;20290;-49
2022/11/30 08:23:43;;;;;;;38.47;21.63;;;6.10;99.90;;;;;;5006731;28;20052;-49
2022/11/30 08:26:12;;;;;;;45.40;23.60;;;6.00;99.90;;;;;;5003733;28;20052;-47
2022/11/30 08:28:39;;;;;;;39.28;20.42;;;5.80;99.90;;;;;;5006152;28;20500;-52
2022/11/30 08:31:08;;;;;;;39.97;22.85;;;6.00;99.90;;;;;;5005802;28;20045;-50
2022/11/30 08:33:35;;;;;;;41.97;22.60;;;5.80;99.90;;;;;;5009605;28;20522;-48
2022/11/30 08:36:14;;;;;;;53.22;22.85;;;5.80;99.90;;;;;;5002935;28;20406;-49
2022/11/30 08:38:41;;;;;;;47.60;23.50;;;5.90;99.90;;;;;;5007303;28;20039;-52
2022/11/30 08:41:09;;;;;;;45.03;22.08;;;5.90;99.90;;;;;;5006955;28;20046;-52
2022/11/30 08:43:35;;;;;;;48.13;22.92;;;5.90;99.90;;;;;;5003762;28;20049;-53
2022/11/30 08:46:03;;;;;;;44.00;23.48;;;5.90;99.90;;;;;;5005623;28;20037;-50
2022/11/30 08:48:29;;;;;;;45.92;23.13;;;5.90;99.90;;;;;;5004918;28;20911;-53
2022/11/30 08:51:02;;;;;;;45.38;22.40;;;6.00;99.90;;;;;;5003429;28;20049;-48
2022/11/30 08:53:27;;;;;;;42.80;22.90;;;5.90;99.90;;;;;;5004903;28;20048;-49
2022/11/30 08:56:02;;;;;;;44.63;24.23;;;6.00;99.90;;;;;;5001853;28;20033;-53
2022/11/30 08:58:30;;;;;;;42.60;21.33;;;6.00;99.90;;;;;;5005111;28;20049;-52
2022/11/30 09:01:19;;;;;;;48.85;23.95;;;5.90;99.90;;;;;;5004301;28;20075;-48
2022/11/30 09:03:47;;;;;;;44.25;22.63;;;6.00;99.90;;;;;;5006978;28;20425;-49
2022/11/30 09:06:13;;;;;;;41.75;23.98;;;6.10;99.90;;;;;;5001942;28;20840;-50
2022/11/30 09:08:41;;;;;;;41.03;18.67;;;6.20;99.90;;;;;;5004638;28;20551;-51
2022/11/30 09:11:22;;;;;;;38.40;19.98;;;6.10;99.90;;;;;;5002165;28;20540;-50
2022/11/30 09:13:49;;;;;;;37.45;19.60;;;6.10;99.90;;;;;;5003043;28;21100;-51
2022/11/30 09:16:17;;;;;;;48.70;23.33;;;6.30;99.90;;;;;;5004676;28;20042;-53
2022/11/30 09:18:43;;;;;;;46.38;23.67;;;6.20;99.90;;;;;;5008839;28;20045;-48
2022/11/30 09:21:13;;;;;;;42.90;22.75;;;6.20;99.90;;;;;;5004592;28;20064;-48
2022/11/30 09:23:39;;;;;;;41.47;21.02;;;6.30;99.90;;;;;;5004910;28;20330;-48
2022/11/30 09:26:07;;;;;;;40.45;21.40;;;6.30;99.90;;;;;;5004241;28;20132;-49
2022/11/30 09:28:34;;;;;;;41.53;22.23;;;6.30;99.90;;;;;;5005674;28;20057;-51
2022/11/30 09:31:10;;;;;;;43.78;22.40;;;6.30;99.90;;;;;;5006136;28;20034;-49
2022/11/30 09:33:36;;;;;;;41.22;21.98;;;6.30;99.90;;;;;;5007073;28;20029;-51
2022/11/30 09:36:05;;;;;;;39.95;22.42;;;6.20;99.90;;;;;;5006674;28;20471;-47
2022/11/30 09:38:30;;;;;;;41.78;22.95;;;6.20;99.90;;;;;;5005234;28;20124;-50
2022/11/30 09:40:59;;;;;;;34.70;20.20;;;6.40;99.90;;;;;;5005583;28;20782;-47
2022/11/30 09:43:55;;;;;;;39.33;21.50;;;6.20;99.90;;;;;;5008727;28;20033;-49
2022/11/30 09:46:27;;;;;;;35.78;20.83;;;6.50;99.90;;;;;;5006999;28;20119;-52
2022/11/30 09:48:56;;;;;;;41.08;22.90;;;6.30;99.90;;;;;;5002064;28;20141;-48
2022/11/30 09:51:28;;;;;;;41.67;23.45;;;6.30;99.90;;;;;;5000758;28;20111;-49
2022/11/30 09:53:58;;;;;;;45.92;23.02;;;6.40;99.90;;;;;;5004501;28;20136;-47
2022/11/30 09:56:31;;;;;;;44.38;20.90;;;6.40;99.90;;;;;;5004501;28;20088;-50
2022/11/30 09:59:05;;;;;;;44.17;24.48;;;6.40;99.90;;;;;;5004773;28;20432;-50
2022/11/30 10:01:33;;;;;;;51.53;24.13;;;6.20;99.90;;;;;;5003235;28;20045;-47
2022/11/30 10:04:00;;;;;;;47.70;23.55;;;6.40;99.90;;;;;;5001186;28;20052;-51
2022/11/30 10:07:03;;;;;;;50.13;24.20;;;6.30;99.90;;;;;;4999818;28;20052;-51
2022/11/30 10:09:48;;;;;;;;;;;6.40;99.90;;;;;;5001932;28;20042;-49
2022/11/30 10:12:23;;;;;;;52.10;26.23;;;6.40;99.90;;;;;;5007744;28;19979;-48
2022/11/30 10:14:59;;;;;;;50.22;25.58;;;6.40;99.90;;;;;;4992011;28;20091;-48
2022/11/30 10:17:49;;;;;;;49.80;25.00;;;6.50;99.90;;;;;;5004966;28;20441;-49
2022/11/30 10:20:34;;;;;;;49.13;24.00;;;6.60;99.90;;;;;;5001874;28;20166;-49
2022/11/30 10:23:06;;;;;;;49.70;25.95;;;6.60;99.90;;;;;;5005280;28;20537;-50
2022/11/30 10:25:57;;;;;;;48.60;25.70;;;6.50;99.90;;;;;;5003555;28;20036;-52
2022/11/30 10:28:39;;;;;;;52.00;27.92;;;6.50;99.90;;;;;;5005077;28;20052;-50
2022/11/30 10:31:09;;;;;;;50.33;28.45;;;6.40;99.90;;;;;;5003371;28;20065;-49
2022/11/30 10:33:48;;;;;;;50.50;25.10;;;6.60;99.90;;;;;;5001715;28;20046;-49
2022/11/30 10:36:26;;;;;;;41.35;22.92;;;6.60;99.90;;;;;;5007750;28;20180;-48
2022/11/30 10:38:58;;;;;;;42.30;23.27;;;6.60;99.90;;;;;;5008868;28;20045;-47
2022/11/30 10:41:55;;;;;;;46.60;24.30;;;6.60;99.90;;;;;;5006704;28;20621;-52
2022/11/30 10:44:34;;;;;;;41.70;24.42;;;6.60;99.90;;;;;;4991396;28;20049;-49
2022/11/30 10:47:20;;;;;;;43.55;24.13;;;6.50;99.90;;;;;;5003626;28;20060;-51
2022/11/30 10:49:49;;;;;;;43.20;25.27;;;6.60;99.90;;;;;;5001099;28;20140;-51
2022/11/30 10:52:21;;;;;;;39.08;22.65;;;6.80;99.90;;;;;;5005136;28;20044;-51
2022/11/30 10:54:49;;;;;;;39.92;23.13;;;6.60;99.90;;;;;;5008190;28;20077;-48
2022/11/30 10:57:15;;;;;;;41.17;21.63;;;6.70;99.90;;;;;;5003370;28;20048;-50
2022/11/30 10:59:46;;;;;;;39.78;23.55;;;6.70;99.90;;;;;;5006285;28;20042;-47
2022/11/30 11:02:35;;;;;;;46.35;25.20;;;6.70;99.90;;;;;;5004160;28;20191;-52
2022/11/30 11:05:18;;;;;;;43.53;24.98;;;6.70;99.90;;;;;;5002314;28;20095;-49
2022/11/30 11:07:51;;;;;;;35.78;18.73;;;6.60;99.90;;;;;;5003766;28;20046;-51
2022/11/30 11:10:39;;;;;;;40.47;24.40;;;6.60;99.90;;;;;;5004550;28;20041;-53
2022/11/30 11:13:05;;;;;;;43.70;25.25;;;6.70;99.90;;;;;;5000987;28;20045;-52
2022/11/30 11:15:33;;;;;;;40.33;23.27;;;6.60;99.90;;;;;;5000910;28;20576;-53
2022/11/30 11:18:21;;;;;;;41.42;24.10;;;6.60;99.90;;;;;;5003894;28;20037;-49
2022/11/30 11:20:47;;;;;;;44.35;25.73;;;6.60;99.90;;;;;;5005137;28;20111;-47
2022/11/30 11:23:35;;;;;;;41.72;24.92;;;6.50;99.90;;;;;;5004140;28;20053;-47
2022/11/30 11:26:02;;;;;;;46.33;24.80;;;6.60;99.90;;;;;;5004924;28;20114;-48
2022/11/30 11:28:28;;;;;;;45.65;26.63;;;6.70;99.90;;;;;;4998150;28;20046;-53
2022/11/30 11:30:55;;;;;;;40.60;25.10;;;6.60;99.90;;;;;;5001969;28;20049;-52
2022/11/30 11:33:26;;;;;;;45.03;26.17;;;6.60;99.90;;;;;;4999961;28;20034;-52
2022/11/30 11:36:13;;;;;;;43.28;23.63;;;6.70;99.90;;;;;;4999383;28;20073;-47
2022/11/30 11:38:47;;;;;;;52.60;29.17;;;6.70;99.90;;;;;;5002807;28;20327;-47
2022/11/30 11:41:30;;;;;;;45.13;27.02;;;6.60;99.90;;;;;;5008079;28;20095;-46
2022/11/30 11:44:01;;;;;;;44.47;26.80;;;6.60;99.90;;;;;;4995208;28;20045;-48
2022/11/30 11:46:29;;;;;;;47.95;30.00;;;6.70;99.90;;;;;;5001786;28;20049;-47
2022/11/30 11:49:00;;;;;;;41.33;19.90;;;6.60;99.90;;;;;;5000478;28;20154;-48
2022/11/30 11:51:33;;;;;;;49.17;28.08;;;6.80;99.90;;;;;;5003986;28;20049;-48
2022/11/30 11:54:21;;;;;;;52.25;31.38;;;6.60;99.90;;;;;;5001207;28;20640;-48
2022/11/30 11:56:48;;;;;;;50.38;28.77;;;6.50;99.90;;;;;;4999535;28;20046;-51
2022/11/30 11:59:21;;;;;;;52.40;31.23;;;6.60;99.90;;;;;;4998548;28;20131;-52
2022/11/30 12:01:50;;;;;;;49.33;28.27;;;6.70;99.90;;;;;;5002226;28;20137;-52
2022/11/30 12:04:23;;;;;;;50.42;28.58;;;6.70;99.90;;;;;;5004315;28;20419;-48
2022/11/30 12:06:52;;;;;;;45.45;25.77;;;6.60;99.90;;;;;;5002676;28;20045;-46
2022/11/30 12:09:27;;;;;;;48.78;30.25;;;7.00;99.90;;;;;;5002586;28;20050;-48
2022/11/30 12:11:53;;;;;;;48.35;29.85;;;6.80;99.90;;;;;;5001787;28;20145;-49
2022/11/30 12:14:19;;;;;;;48.00;29.50;;;6.60;99.90;;;;;;5002130;28;20069;-47
2022/11/30 12:16:56;;;;;;;50.20;30.30;;;6.60;99.90;;;;;;4998126;28;20049;-49
2022/11/30 12:19:42;;;;;;;47.22;27.38;;;6.60;99.90;;;;;;4999116;28;20042;-49
2022/11/30 12:22:14;;;;;;;46.30;23.25;;;6.70;99.90;;;;;;4998459;28;20104;-50
2022/11/30 12:24:52;;;;;;;46.20;28.98;;;6.60;99.90;;;;;;4997719;28;20050;-51
2022/11/30 12:27:49;;;;;;;48.55;30.48;;;6.60;99.90;;;;;;4995294;28;20048;-47
2022/11/30 12:30:22;;;;;;;45.65;27.70;;;6.60;99.90;;;;;;4998244;28;20034;-52
2022/11/30 12:33:38;;;;;;;51.83;28.67;;;6.70;99.90;;;;;;5002767;28;20068;-50
2022/11/30 12:36:28;;;;;;;50.50;29.92;;;6.50;99.90;;;;;;4992488;28;20522;-49
2022/11/30 12:38:57;;;;;;;53.70;31.13;;;6.60;99.90;;;;;;4997932;28;20050;-52
2022/11/30 12:41:36;;;;;;;52.13;29.77;;;6.50;99.90;;;;;;5001124;28;20045;-48
2022/11/30 12:44:43;;;;;;;56.30;33.60;;;6.50;99.90;;;;;;5000555;28;20492;-50
2022/11/30 12:47:50;;;;;;;49.88;30.77;;;6.70;99.90;;;;;;4992377;28;20141;-49
2022/11/30 12:50:33;;;;;;;47.10;29.73;;;6.60;99.90;;;;;;5000157;28;20057;-49
2022/11/30 12:53:10;;;;;;;48.35;26.70;;;6.60;99.90;;;;;;5002151;28;20047;-51
2022/11/30 12:55:40;;;;;;;48.22;30.77;;;6.60;99.90;;;;;;5002051;28;20042;-52